createdAt,value
2023-01-19T00:00:06.771Z,54.02
2023-01-19T00:02:33.083Z,54.16
2023-01-19T00:04:59.378Z,54.49
2023-01-19T00:07:25.630Z,54.42
2023-01-19T00:09:51.918Z,54.46
2023-01-19T00:12:18.179Z,54.89
2023-01-19T00:14:44.441Z,55.40
2023-01-19T00:17:10.701Z,54.78
2023-01-19T00:19:36.955Z,55.01
2023-01-19T00:22:03.233Z,55.24
2023-01-19T00:24:29.497Z,55.37
2023-01-19T00:26:55.768Z,55.57
2023-01-19T00:29:22.033Z,56.05
2023-01-19T00:31:48.321Z,56.03
2023-01-19T00:34:14.608Z,55.63
2023-01-19T00:36:40.895Z,55.44
2023-01-19T00:39:07.152Z,55.58
2023-01-19T00:41:33.406Z,56.13
2023-01-19T00:43:59.652Z,55.83
2023-01-19T00:46:25.891Z,55.65
2023-01-19T00:48:52.263Z,55.89
2023-01-19T00:51:18.510Z,56.03
2023-01-19T00:53:44.751Z,56.00
2023-01-19T00:56:11.028Z,55.85
2023-01-19T00:58:37.277Z,55.53
2023-01-19T01:01:03.988Z,55.63
2023-01-19T01:03:30.348Z,54.78
2023-01-19T01:05:56.616Z,55.02
2023-01-19T01:08:22.960Z,54.81
2023-01-19T01:10:49.277Z,55.15
2023-01-19T01:13:22.551Z,55.46
2023-01-19T01:15:50.085Z,55.25
2023-01-19T01:18:16.331Z,55.50
2023-01-19T01:20:42.607Z,55.27
2023-01-19T01:23:08.859Z,55.41
2023-01-19T01:25:35.133Z,55.27
2023-01-19T01:28:01.403Z,54.85
2023-01-19T01:30:27.681Z,54.94
2023-01-19T01:32:53.927Z,54.96
2023-01-19T01:35:20.179Z,55.25
2023-01-19T01:37:46.472Z,55.11
2023-01-19T01:40:12.762Z,55.48
2023-01-19T01:42:39.047Z,55.08
2023-01-19T01:45:05.735Z,55.35
2023-01-19T01:47:32.019Z,55.54
2023-01-19T01:49:58.302Z,55.52
2023-01-19T01:52:24.608Z,55.50
2023-01-19T01:54:50.887Z,55.92
2023-01-19T01:57:17.137Z,55.56
2023-01-19T01:59:43.402Z,55.84
2023-01-19T02:02:09.698Z,55.92
2023-01-19T02:04:36.651Z,55.83
2023-01-19T02:07:02.943Z,55.70
2023-01-19T02:09:29.242Z,55.55
2023-01-19T02:11:55.611Z,55.88
2023-01-19T02:14:21.880Z,56.00
2023-01-19T02:16:48.213Z,55.71
2023-01-19T02:19:14.465Z,55.65
2023-01-19T02:21:40.766Z,55.61
2023-01-19T02:24:07.031Z,55.67
2023-01-19T02:26:33.281Z,55.61
2023-01-19T02:28:59.555Z,55.59
2023-01-19T02:31:25.819Z,55.59
2023-01-19T02:33:52.076Z,55.84
2023-01-19T02:36:18.341Z,55.75
2023-01-19T02:38:44.677Z,55.68
2023-01-19T02:41:10.943Z,56.04
2023-01-19T02:43:37.196Z,55.97
2023-01-19T02:46:03.515Z,55.73
2023-01-19T02:48:29.800Z,56.13
2023-01-19T02:50:56.057Z,56.34
2023-01-19T02:53:22.391Z,56.58
2023-01-19T02:55:48.669Z,56.67
2023-01-19T02:58:14.926Z,56.75
2023-01-19T03:00:41.215Z,56.75
2023-01-19T03:03:07.550Z,56.83
2023-01-19T03:05:33.844Z,56.65
2023-01-19T03:08:00.139Z,56.64
2023-01-19T03:10:26.530Z,56.77
2023-01-19T03:12:52.787Z,56.75
2023-01-19T03:15:19.144Z,57.04
2023-01-19T03:17:45.429Z,57.45
2023-01-19T03:20:11.683Z,57.49
2023-01-19T03:22:37.954Z,58.06
2023-01-19T03:25:04.229Z,57.72
2023-01-19T03:27:30.521Z,58.10
2023-01-19T03:29:56.773Z,58.22
2023-01-19T03:32:23.032Z,58.10
2023-01-19T03:34:49.280Z,58.03
2023-01-19T03:37:15.535Z,57.93
2023-01-19T03:39:41.799Z,57.91
2023-01-19T03:42:08.049Z,58.16
2023-01-19T03:44:34.288Z,58.12
2023-01-19T03:47:00.552Z,58.07
2023-01-19T03:49:26.840Z,58.12
2023-01-19T03:51:53.099Z,58.08
2023-01-19T03:54:19.381Z,58.05
2023-01-19T03:56:45.653Z,57.81
2023-01-19T03:59:11.925Z,57.72
2023-01-19T04:01:38.276Z,57.89
2023-01-19T04:04:04.597Z,57.48
2023-01-19T04:06:30.858Z,57.47
2023-01-19T04:08:57.218Z,57.51
2023-01-19T04:11:23.719Z,57.74
2023-01-19T04:13:50.031Z,57.26
2023-01-19T04:16:16.330Z,57.30
2023-01-19T04:18:42.618Z,57.25
2023-01-19T04:21:08.876Z,57.22
2023-01-19T04:23:35.129Z,57.40
2023-01-19T04:26:01.391Z,57.51
2023-01-19T04:28:27.657Z,57.51
2023-01-19T04:30:53.992Z,57.86
2023-01-19T04:33:20.267Z,57.74
2023-01-19T04:35:46.529Z,57.72
2023-01-19T04:38:12.791Z,57.48
2023-01-19T04:40:39.059Z,57.44
2023-01-19T04:43:05.336Z,57.22
2023-01-19T04:45:31.596Z,57.42
2023-01-19T04:47:57.846Z,57.75
2023-01-19T04:50:24.098Z,58.00
2023-01-19T04:52:50.344Z,57.69
2023-01-19T04:55:16.604Z,57.79
2023-01-19T04:57:42.850Z,57.58
2023-01-19T05:00:09.107Z,57.61
2023-01-19T05:02:35.376Z,57.65
2023-01-19T05:05:01.697Z,57.46
2023-01-19T05:07:28.041Z,57.70
2023-01-19T05:09:54.348Z,57.53
2023-01-19T05:12:20.635Z,57.61
2023-01-19T05:14:46.901Z,57.36
2023-01-19T05:17:13.187Z,57.47
2023-01-19T05:19:39.444Z,57.73
2023-01-19T05:22:05.695Z,57.60
2023-01-19T05:24:31.977Z,57.64
2023-01-19T05:26:58.243Z,57.62
2023-01-19T05:29:24.485Z,57.55
2023-01-19T05:31:50.943Z,57.56
2023-01-19T05:34:17.205Z,57.54
2023-01-19T05:36:43.472Z,57.50
2023-01-19T05:39:09.899Z,57.37
2023-01-19T05:41:36.160Z,57.19
2023-01-19T05:44:02.433Z,57.15
2023-01-19T05:46:28.726Z,57.23
2023-01-19T05:48:55.015Z,57.29
2023-01-19T05:51:21.300Z,57.51
2023-01-19T05:53:47.551Z,57.72
2023-01-19T05:56:13.824Z,57.46
2023-01-19T05:58:40.086Z,57.17
2023-01-19T06:01:06.381Z,56.94
2023-01-19T06:03:32.848Z,56.80
2023-01-19T06:05:59.274Z,57.04
2023-01-19T06:08:25.543Z,57.09
2023-01-19T06:10:51.809Z,56.67
2023-01-19T06:13:18.100Z,56.82
2023-01-19T06:15:44.576Z,57.01
2023-01-19T06:18:10.851Z,56.95
2023-01-19T06:20:37.117Z,56.65
2023-01-19T06:23:03.626Z,56.89
2023-01-19T06:25:30.101Z,56.71
2023-01-19T06:27:56.356Z,56.66
2023-01-19T06:30:22.618Z,56.58
2023-01-19T06:32:48.961Z,56.57
2023-01-19T06:35:15.201Z,56.77
2023-01-19T06:37:41.476Z,56.77
2023-01-19T06:40:07.761Z,56.99
2023-01-19T06:42:34.027Z,57.32
2023-01-19T06:45:00.305Z,57.76
2023-01-19T06:47:26.574Z,57.30
2023-01-19T06:49:52.848Z,57.61
2023-01-19T06:52:19.150Z,57.31
2023-01-19T06:54:45.605Z,57.30
2023-01-19T06:57:11.877Z,57.26
2023-01-19T06:59:38.121Z,57.48
2023-01-19T07:02:27.200Z,57.41
2023-01-19T07:04:50.699Z,57.17
2023-01-19T07:07:16.981Z,57.10
2023-01-19T07:09:43.221Z,57.13
2023-01-19T07:12:09.484Z,57.06
2023-01-19T07:14:36.578Z,57.22
2023-01-19T07:17:02.854Z,57.19
2023-01-19T07:19:29.100Z,57.40
2023-01-19T07:21:55.372Z,57.27
2023-01-19T07:24:21.639Z,57.33
2023-01-19T07:26:47.904Z,57.16
2023-01-19T07:29:14.154Z,57.47
2023-01-19T07:31:40.483Z,57.52
2023-01-19T07:34:06.807Z,57.82
2023-01-19T07:36:33.123Z,57.76
2023-01-19T07:38:59.427Z,57.56
2023-01-19T07:41:25.711Z,57.26
2023-01-19T07:43:51.976Z,57.33
2023-01-19T07:46:18.276Z,57.31
2023-01-19T07:48:44.569Z,57.33
2023-01-19T07:51:12.705Z,57.41
2023-01-19T07:53:39.345Z,57.68
2023-01-19T07:56:05.608Z,57.63
2023-01-19T07:58:31.869Z,57.63
2023-01-19T08:00:58.285Z,57.59
2023-01-19T08:03:24.771Z,57.44
2023-01-19T08:05:51.048Z,57.37
2023-01-19T08:08:17.382Z,57.42
2023-01-19T08:10:43.633Z,57.63
2023-01-19T08:13:09.871Z,57.39
2023-01-19T08:15:36.159Z,57.30
2023-01-19T08:18:02.454Z,57.30
2023-01-19T08:20:28.731Z,57.15
2023-01-19T08:22:54.979Z,57.21
2023-01-19T08:25:21.221Z,57.43
2023-01-19T08:27:47.511Z,57.62
2023-01-19T08:30:13.762Z,57.61
2023-01-19T08:32:40.049Z,57.83
2023-01-19T08:35:06.334Z,57.69
2023-01-19T08:37:34.224Z,57.67
2023-01-19T08:40:00.660Z,57.70
2023-01-19T08:42:26.922Z,57.38
2023-01-19T08:44:58.197Z,57.47
2023-01-19T08:47:24.872Z,57.58
2023-01-19T08:49:51.202Z,57.85
2023-01-19T08:52:17.480Z,58.02
2023-01-19T08:54:43.743Z,58.28
2023-01-19T08:57:10.017Z,58.46
2023-01-19T08:59:36.337Z,58.32
2023-01-19T09:02:02.711Z,57.85
2023-01-19T09:04:29.086Z,57.86
2023-01-19T09:06:55.336Z,58.17
2023-01-19T09:09:21.622Z,58.12
2023-01-19T09:11:47.933Z,58.25
2023-01-19T09:14:14.206Z,58.05
2023-01-19T09:16:40.493Z,58.05
2023-01-19T09:19:06.799Z,58.11
2023-01-19T09:21:33.080Z,57.76
2023-01-19T09:23:59.344Z,57.82
2023-01-19T09:26:25.608Z,57.89
2023-01-19T09:28:51.881Z,57.80
2023-01-19T09:31:18.249Z,58.07
2023-01-19T09:33:44.541Z,58.07
2023-01-19T09:36:10.825Z,58.02
2023-01-19T09:38:37.074Z,57.82
2023-01-19T09:41:03.441Z,57.99
2023-01-19T09:43:29.740Z,57.59
2023-01-19T09:45:56.012Z,58.23
2023-01-19T09:48:22.248Z,58.13
2023-01-19T09:50:48.503Z,57.81
2023-01-19T09:53:14.770Z,57.77
2023-01-19T09:55:41.069Z,58.07
2023-01-19T09:58:07.360Z,58.13
2023-01-19T10:00:33.669Z,58.07
2023-01-19T10:03:00.314Z,57.95
2023-01-19T10:05:26.841Z,58.01
2023-01-19T10:07:53.158Z,57.64
2023-01-19T10:10:19.421Z,57.91
2023-01-19T10:12:45.680Z,58.47
2023-01-19T10:15:11.960Z,58.44
2023-01-19T10:17:38.211Z,58.62
2023-01-19T10:20:04.480Z,58.46
2023-01-19T10:22:30.787Z,58.18
2023-01-19T10:24:57.074Z,57.76
2023-01-19T10:27:23.327Z,58.21
2023-01-19T10:29:49.574Z,57.90
2023-01-19T10:32:15.875Z,59.08
2023-01-19T10:34:45.254Z,57.92
2023-01-19T10:37:11.526Z,57.88
2023-01-19T10:39:38.836Z,57.99
2023-01-19T10:42:05.205Z,58.61
2023-01-19T10:44:31.448Z,57.80
2023-01-19T10:46:57.750Z,57.99
2023-01-19T10:49:24.067Z,59.10
2023-01-19T10:51:50.391Z,58.03
2023-01-19T10:54:16.666Z,58.71
2023-01-19T10:56:42.979Z,59.38
2023-01-19T10:59:09.284Z,58.56
2023-01-19T11:01:35.655Z,58.05
2023-01-19T11:04:01.971Z,58.22
2023-01-19T11:06:28.334Z,57.86
2023-01-19T11:08:54.599Z,57.74
2023-01-19T11:11:20.883Z,57.91
2023-01-19T11:13:47.151Z,57.74
2023-01-19T11:16:13.548Z,57.83
2023-01-19T11:18:39.830Z,57.37
2023-01-19T11:21:06.093Z,57.20
2023-01-19T11:23:32.375Z,57.84
2023-01-19T11:25:58.629Z,56.84
2023-01-19T11:28:24.919Z,56.61
2023-01-19T11:30:51.263Z,56.85
2023-01-19T11:33:17.535Z,56.06
2023-01-19T11:35:43.791Z,56.66
2023-01-19T11:38:10.066Z,56.51
2023-01-19T11:40:36.333Z,56.66
2023-01-19T11:43:02.966Z,56.66
2023-01-19T11:45:29.517Z,57.74
2023-01-19T11:47:55.803Z,57.11
2023-01-19T11:50:22.080Z,57.10
2023-01-19T11:52:48.392Z,57.64
2023-01-19T11:55:14.643Z,57.71
2023-01-19T11:57:40.919Z,57.66
2023-01-19T12:00:07.169Z,57.11
2023-01-19T12:02:33.451Z,57.27
2023-01-19T12:04:59.719Z,57.40
2023-01-19T12:07:25.976Z,57.47
2023-01-19T12:09:52.241Z,57.64
2023-01-19T12:12:18.516Z,57.58
2023-01-19T12:14:44.774Z,57.64
2023-01-19T12:17:11.020Z,57.49
2023-01-19T12:19:37.272Z,58.00
2023-01-19T12:22:03.560Z,58.08
2023-01-19T12:24:29.845Z,57.94
2023-01-19T12:26:56.154Z,58.57
2023-01-19T12:29:22.423Z,57.96
2023-01-19T12:31:50.937Z,58.22
2023-01-19T12:34:18.050Z,58.97
2023-01-19T12:36:44.332Z,57.58
2023-01-19T12:39:10.626Z,57.05
2023-01-19T12:41:36.904Z,57.61
2023-01-19T12:44:03.246Z,56.00
2023-01-19T12:46:29.565Z,55.00
2023-01-19T12:48:55.891Z,54.51
2023-01-19T12:51:22.198Z,54.15
2023-01-19T12:53:50.551Z,54.55
2023-01-19T12:56:16.827Z,53.45
2023-01-19T12:58:43.174Z,53.96
2023-01-19T13:01:09.575Z,52.92
2023-01-19T13:03:35.899Z,53.62
2023-01-19T13:06:02.204Z,53.29
2023-01-19T13:08:28.477Z,52.23
2023-01-19T13:10:54.782Z,52.81
2023-01-19T13:13:21.045Z,52.10
2023-01-19T13:15:47.343Z,52.45
2023-01-19T13:18:13.701Z,51.99
2023-01-19T13:20:39.956Z,52.02
2023-01-19T13:23:06.226Z,50.36
2023-01-19T13:25:32.481Z,50.14
2023-01-19T13:27:58.756Z,49.94
2023-01-19T13:30:25.118Z,50.22
2023-01-19T13:32:51.409Z,48.79
2023-01-19T13:35:17.737Z,48.50
2023-01-19T13:37:43.999Z,47.28
2023-01-19T13:40:10.292Z,48.19
2023-01-19T13:42:36.540Z,48.71
2023-01-19T13:45:02.819Z,48.27
2023-01-19T13:47:29.112Z,49.10
2023-01-19T13:49:55.381Z,48.53
2023-01-19T13:52:21.660Z,48.32
2023-01-19T13:54:47.930Z,47.50
2023-01-19T13:57:14.210Z,45.24
2023-01-19T13:59:40.552Z,47.08
2023-01-19T14:02:06.909Z,46.39
2023-01-19T14:04:33.233Z,47.56
2023-01-19T14:06:59.484Z,46.72
2023-01-19T14:09:25.748Z,47.19
2023-01-19T14:11:52.075Z,47.94
2023-01-19T14:14:18.370Z,47.18
2023-01-19T14:16:44.608Z,47.54
2023-01-19T14:19:10.880Z,46.51
2023-01-19T14:21:37.194Z,46.19
2023-01-19T14:24:03.481Z,46.84
2023-01-19T14:26:29.751Z,47.86
2023-01-19T14:28:56.016Z,47.31
2023-01-19T14:31:22.347Z,46.20
2023-01-19T14:33:48.755Z,47.04
2023-01-19T14:36:17.583Z,47.32
2023-01-19T14:38:44.095Z,46.66
2023-01-19T14:41:10.450Z,46.78
2023-01-19T14:43:36.693Z,46.86
2023-01-19T14:46:02.944Z,47.19
2023-01-19T14:48:29.212Z,47.25
2023-01-19T14:51:03.147Z,45.70
2023-01-19T14:53:29.656Z,47.39
2023-01-19T14:55:55.959Z,47.36
2023-01-19T14:58:22.219Z,47.52
2023-01-19T15:00:48.525Z,47.74
2023-01-19T15:03:14.791Z,48.09
2023-01-19T15:05:41.054Z,47.58
2023-01-19T15:08:07.341Z,47.63
2023-01-19T15:10:33.605Z,47.12
2023-01-19T15:12:59.910Z,47.41
2023-01-19T15:15:26.175Z,47.36
2023-01-19T15:17:53.171Z,47.95
2023-01-19T15:20:20.511Z,47.55
2023-01-19T15:22:46.815Z,48.06
2023-01-19T15:25:13.072Z,47.21
2023-01-19T15:27:39.349Z,47.44
2023-01-19T15:30:05.625Z,47.58
2023-01-19T15:32:31.910Z,48.19
2023-01-19T15:34:58.229Z,49.33
2023-01-19T15:37:24.590Z,48.20
2023-01-19T15:39:50.929Z,49.00
2023-01-19T15:42:17.290Z,49.36
2023-01-19T15:44:43.651Z,49.83
2023-01-19T15:47:10.018Z,49.79
2023-01-19T15:49:36.309Z,50.12
2023-01-19T15:52:02.594Z,50.09
2023-01-19T15:54:28.860Z,50.54
2023-01-19T15:56:55.115Z,49.85
2023-01-19T15:59:21.389Z,50.28
2023-01-19T16:01:47.845Z,50.65
2023-01-19T16:04:15.998Z,50.77
2023-01-19T16:06:44.083Z,51.53
2023-01-19T16:09:10.352Z,51.18
2023-01-19T16:11:36.605Z,51.43
2023-01-19T16:14:02.861Z,52.03
2023-01-19T16:16:29.198Z,51.97
2023-01-19T16:18:55.523Z,51.72
2023-01-19T16:21:21.821Z,51.91
2023-01-19T16:23:48.091Z,52.44
2023-01-19T16:26:16.187Z,52.81
2023-01-19T16:28:43.747Z,52.93
2023-01-19T16:31:10.031Z,53.13
2023-01-19T16:33:36.340Z,53.29
2023-01-19T16:36:02.598Z,53.44
2023-01-19T16:38:28.901Z,53.61
2023-01-19T16:40:55.175Z,53.69
2023-01-19T16:43:21.442Z,54.24
2023-01-19T16:45:47.749Z,54.30
2023-01-19T16:48:14.025Z,54.19
2023-01-19T16:50:40.315Z,54.40
2023-01-19T16:53:06.571Z,54.42
2023-01-19T16:55:32.838Z,54.53
2023-01-19T16:57:59.106Z,54.47
2023-01-19T17:00:25.388Z,54.93
2023-01-19T17:02:51.714Z,54.93
2023-01-19T17:05:18.023Z,55.02
2023-01-19T17:07:44.327Z,55.22
2023-01-19T17:10:10.833Z,55.37
2023-01-19T17:12:37.228Z,55.74
2023-01-19T17:15:03.488Z,55.80
2023-01-19T17:17:29.735Z,56.06
2023-01-19T17:19:56.017Z,56.08
2023-01-19T17:22:22.329Z,55.93
2023-01-19T17:24:48.601Z,56.07
2023-01-19T17:27:14.913Z,55.85
2023-01-19T17:29:41.218Z,55.78
2023-01-19T17:32:07.498Z,55.88
2023-01-19T17:34:33.804Z,55.61
2023-01-19T17:37:00.103Z,55.30
2023-01-19T17:39:26.397Z,55.46
2023-01-19T17:41:52.694Z,55.33
2023-01-19T17:44:18.991Z,55.46
2023-01-19T17:46:45.247Z,55.64
2023-01-19T17:49:11.599Z,55.53
2023-01-19T17:51:37.868Z,55.79
2023-01-19T17:54:04.178Z,55.44
2023-01-19T17:56:30.513Z,55.91
2023-01-19T17:58:56.803Z,56.05
2023-01-19T18:01:23.189Z,56.54
2023-01-19T18:03:49.531Z,56.59
2023-01-19T18:06:15.979Z,56.55
2023-01-19T18:08:42.287Z,56.57
2023-01-19T18:11:08.609Z,57.24
2023-01-19T18:13:34.891Z,56.85
2023-01-19T18:16:01.350Z,57.10
2023-01-19T18:18:27.645Z,57.36
2023-01-19T18:20:53.924Z,56.97
2023-01-19T18:23:20.276Z,56.81
2023-01-19T18:25:46.585Z,57.44
2023-01-19T18:28:13.025Z,57.81
2023-01-19T18:30:39.426Z,57.66
2023-01-19T18:33:05.790Z,57.55
2023-01-19T18:35:32.063Z,57.80
2023-01-19T18:37:58.347Z,58.05
2023-01-19T18:40:24.605Z,58.52
2023-01-19T18:42:50.963Z,58.13
2023-01-19T18:45:17.337Z,58.19
2023-01-19T18:47:43.624Z,58.12
2023-01-19T18:50:09.882Z,58.07
2023-01-19T18:52:36.163Z,58.10
2023-01-19T18:55:02.461Z,57.96
2023-01-19T18:57:28.810Z,57.61
2023-01-19T18:59:55.142Z,57.78
2023-01-19T19:02:21.490Z,57.68
2023-01-19T19:04:47.789Z,57.84
2023-01-19T19:07:14.052Z,58.16
2023-01-19T19:09:40.407Z,58.04
2023-01-19T19:12:06.695Z,58.18
2023-01-19T19:14:32.983Z,58.33
2023-01-19T19:16:59.242Z,58.21
2023-01-19T19:19:25.532Z,58.29
2023-01-19T19:21:51.811Z,58.50
2023-01-19T19:24:18.105Z,58.63
2023-01-19T19:26:44.391Z,58.41
2023-01-19T19:29:10.659Z,58.54
2023-01-19T19:31:36.994Z,59.04
2023-01-19T19:34:03.475Z,58.95
2023-01-19T19:36:29.800Z,60.61
2023-01-19T19:38:56.085Z,59.08
2023-01-19T19:41:22.369Z,58.70
2023-01-19T19:43:48.679Z,58.42
2023-01-19T19:46:14.954Z,58.48
2023-01-19T19:48:41.247Z,58.52
2023-01-19T19:51:17.736Z,58.76
2023-01-19T19:53:45.008Z,58.72
2023-01-19T19:56:11.290Z,58.13
2023-01-19T19:58:37.581Z,57.88
2023-01-19T20:01:04.030Z,57.65
2023-01-19T20:03:30.318Z,57.65
2023-01-19T20:05:56.634Z,57.58
2023-01-19T20:08:22.950Z,57.64
2023-01-19T20:10:49.232Z,57.60
2023-01-19T20:13:15.652Z,57.51
2023-01-19T20:15:42.101Z,57.29
2023-01-19T20:18:08.436Z,57.15
2023-01-19T20:20:34.757Z,56.92
2023-01-19T20:23:01.032Z,56.75
2023-01-19T20:25:27.311Z,56.69
2023-01-19T20:27:53.601Z,56.64
2023-01-19T20:30:19.893Z,56.87
2023-01-19T20:32:46.299Z,56.78
2023-01-19T20:35:12.991Z,56.90
2023-01-19T20:37:39.536Z,57.32
2023-01-19T20:40:05.826Z,57.10
2023-01-19T20:42:32.084Z,57.02
2023-01-19T20:45:13.858Z,56.90
2023-01-19T20:47:40.332Z,57.03
2023-01-19T20:50:06.702Z,56.88
2023-01-19T20:52:33.135Z,56.83
2023-01-19T20:54:59.414Z,56.81
2023-01-19T20:57:25.768Z,56.87
2023-01-19T20:59:52.064Z,56.56
2023-01-19T21:02:18.578Z,56.51
2023-01-19T21:04:44.928Z,56.43
2023-01-19T21:07:11.259Z,56.68
2023-01-19T21:09:37.509Z,56.63
2023-01-19T21:12:03.805Z,56.80
2023-01-19T21:14:30.081Z,56.65
2023-01-19T21:16:56.363Z,56.99
2023-01-19T21:19:25.709Z,57.55
2023-01-19T21:21:51.992Z,57.37
2023-01-19T21:24:18.271Z,57.19
2023-01-19T21:26:44.560Z,57.25
2023-01-19T21:29:10.834Z,57.07
2023-01-19T21:31:37.234Z,57.09
2023-01-19T21:34:03.621Z,56.76
2023-01-19T21:36:29.878Z,56.61
2023-01-19T21:38:56.132Z,56.53
2023-01-19T21:41:22.402Z,56.25
2023-01-19T21:43:48.661Z,56.08
2023-01-19T21:46:14.920Z,56.10
2023-01-19T21:48:41.173Z,56.03
2023-01-19T21:51:07.447Z,56.34
2023-01-19T21:53:33.713Z,56.07
2023-01-19T21:56:00.010Z,56.20
2023-01-19T21:58:26.275Z,55.66
2023-01-19T22:00:52.660Z,55.39
2023-01-19T22:03:19.020Z,55.15
2023-01-19T22:05:45.324Z,55.17
2023-01-19T22:08:11.588Z,54.88
2023-01-19T22:10:37.864Z,55.18
2023-01-19T22:13:04.137Z,55.17
2023-01-19T22:15:30.405Z,54.77
2023-01-19T22:17:56.678Z,55.18
2023-01-19T22:20:22.945Z,55.13
2023-01-19T22:22:49.328Z,55.11
2023-01-19T22:25:15.749Z,54.88
2023-01-19T22:27:42.062Z,54.95
2023-01-19T22:30:08.384Z,55.06
2023-01-19T22:32:34.687Z,55.25
2023-01-19T22:35:00.960Z,55.38
2023-01-19T22:37:27.243Z,55.49
2023-01-19T22:39:53.587Z,55.06
2023-01-19T22:42:19.880Z,55.56
2023-01-19T22:44:46.139Z,54.89
2023-01-19T22:47:12.427Z,55.08
2023-01-19T22:49:38.755Z,54.89
2023-01-19T22:52:05.061Z,55.28
2023-01-19T22:54:31.372Z,55.33
2023-01-19T22:56:57.695Z,55.35
2023-01-19T22:59:23.970Z,55.36
2023-01-19T23:01:50.363Z,55.83
2023-01-19T23:04:16.697Z,55.69
2023-01-19T23:06:42.992Z,55.75
2023-01-19T23:09:09.344Z,55.94
2023-01-19T23:11:36.184Z,56.12
2023-01-19T23:14:02.491Z,56.00
2023-01-19T23:16:28.760Z,55.92
2023-01-19T23:18:55.041Z,55.58
2023-01-19T23:21:21.332Z,55.34
2023-01-19T23:23:47.595Z,55.24
2023-01-19T23:26:13.940Z,55.45
2023-01-19T23:28:40.311Z,55.21
2023-01-19T23:31:06.632Z,55.12
2023-01-19T23:33:32.941Z,54.99
2023-01-19T23:35:59.198Z,54.99
2023-01-19T23:38:25.468Z,55.16
2023-01-19T23:40:51.742Z,55.40
2023-01-19T23:43:18.010Z,55.04
2023-01-19T23:45:44.365Z,54.83
2023-01-19T23:48:10.638Z,54.73
2023-01-19T23:50:36.903Z,54.46
2023-01-19T23:53:03.269Z,54.35
2023-01-19T23:55:29.568Z,54.35
2023-01-19T23:57:55.841Z,54.03
